Time;durP1;ratioP1;P1;durP2;ratioP2;P2;SDS_P1;SDS_P2;PMS_P1;PMS_P2;Temp;Humidity;BMP_temperature;BMP_pressure;BME280_temperature;BME280_humidity;BME280_pressure;Samples;Min_cycle;Max_cycle;Signal;HPM_P1;HPM_P2
2021/12/15 00:00:23;;;;;;;;;;;9.40;99.90;;;;;;5035100;28;19921;-79
2021/12/15 00:02:51;;;;;;;;;;;9.40;99.90;;;;;;5035104;28;19917;-79
2021/12/15 00:05:22;;;;;;;;;;;9.50;99.90;;;;;;5036217;28;19921;-80
2021/12/15 00:07:49;;;;;;;;;;;9.70;99.90;;;;;;5036149;28;19924;-80
2021/12/15 00:10:15;;;;;;;;;;;9.40;99.90;;;;;;5035320;28;20403;-79
2021/12/15 00:12:40;;;;;;;;;;;9.50;99.90;;;;;;5034392;28;19925;-79
2021/12/15 00:15:06;;;;;;;;;;;9.40;99.90;;;;;;5036308;28;19924;-79
2021/12/15 00:17:32;;;;;;;;;;;9.40;99.90;;;;;;5034857;28;19928;-80
2021/12/15 00:19:57;;;;;;;;;;;9.40;99.90;;;;;;5036312;28;20015;-79
2021/12/15 00:22:23;;;;;;;;;;;9.40;99.90;;;;;;5035112;28;19960;-79
2021/12/15 00:24:48;;;;;;;;;;;9.50;99.90;;;;;;5018485;28;19925;-80
2021/12/15 00:27:14;;;;;;;;;;;9.40;99.90;;;;;;5035706;28;19922;-80
2021/12/15 00:29:40;;;;;;;;;;;9.50;99.90;;;;;;5019863;28;19921;-80
2021/12/15 00:32:06;;;;;;;;;;;9.50;99.90;;;;;;5037107;28;20015;-79
2021/12/15 00:34:34;;;;;;;;;;;9.50;99.90;;;;;;5036502;28;19967;-80
2021/12/15 00:36:59;;;;;;;;;;;9.50;99.90;;;;;;5036780;28;19921;-80
2021/12/15 00:39:27;;;;;;;;;;;9.50;99.90;;;;;;5018927;28;19928;-80
2021/12/15 00:41:52;;;;;;;;;;;9.50;99.90;;;;;;5035044;28;19921;-80
2021/12/15 00:44:18;;;;;;;;;;;9.50;99.90;;;;;;5035464;28;19928;-80
2021/12/15 00:46:44;;;;;;;;;;;9.60;99.90;;;;;;5035304;28;20075;-80
2021/12/15 00:49:10;;;;;;;;;;;9.50;99.90;;;;;;5038164;28;20264;-80
2021/12/15 00:51:37;;;;;;;;;;;9.90;99.90;;;;;;5035224;28;19929;-80
2021/12/15 00:54:04;;;;;;;;;;;9.60;99.90;;;;;;5035031;28;19921;-79
2021/12/15 00:56:29;;;;;;;;;;;9.60;99.90;;;;;;5036030;28;20004;-80
2021/12/15 00:58:55;;;;;;;;;;;9.50;99.90;;;;;;5036697;28;19994;-79
2021/12/15 01:01:23;;;;;;;;;;;9.60;99.90;;;;;;5035264;28;19968;-79
2021/12/15 01:03:48;;;;;;;;;;;9.70;99.90;;;;;;5035548;28;20003;-79
2021/12/15 01:06:18;;;;;;;;;;;9.60;99.90;;;;;;5035028;28;19995;-80
2021/12/15 01:08:46;;;;;;;;;;;9.60;99.90;;;;;;5033505;28;19917;-79
2021/12/15 01:11:24;;;;;;;;;;;9.90;99.90;;;;;;5001075;28;19921;-80
2021/12/15 01:20:04;;;;;;;;;;;9.50;99.90;;;;;;5034642;28;19921;-79
2021/12/15 01:22:25;;;;;;;;;;;9.60;99.90;;;;;;5032227;28;19935;-79
2021/12/15 01:24:52;;;;;;;;;;;9.60;99.90;;;;;;5033904;28;19929;-79
2021/12/15 01:27:18;;;;;;;;;;;9.70;99.90;;;;;;5034681;28;19967;-80
2021/12/15 01:29:44;;;;;;;;;;;9.80;99.90;;;;;;5034628;28;20334;-79
2021/12/15 01:32:09;;;;;;;;;;;9.60;99.90;;;;;;5034674;28;20051;-79
2021/12/15 01:34:35;;;;;;;;;;;9.60;99.90;;;;;;5034470;28;20019;-79
2021/12/15 01:37:00;;;;;;;;;;;9.60;99.90;;;;;;5034751;28;20375;-79
2021/12/15 01:39:26;;;;;;;;;;;9.60;99.90;;;;;;5034606;28;20347;-80
2021/12/15 01:41:56;;;;;;;;;;;10.00;99.90;;;;;;5034868;28;20347;-79
2021/12/15 01:47:02;;;;;;;;;;;9.60;99.90;;;;;;5033290;28;19960;-79
2021/12/15 01:49:27;;;;;;;;;;;9.80;99.90;;;;;;5033976;28;19925;-79
2021/12/15 01:51:54;;;;;;;;;;;9.70;99.90;;;;;;5034511;28;19928;-79
2021/12/15 01:54:20;;;;;;;;;;;9.60;99.90;;;;;;5034769;28;19921;-80
2021/12/15 01:56:46;;;;;;;;;;;9.60;99.90;;;;;;5033714;28;19921;-79
2021/12/15 01:59:13;;;;;;;;;;;9.60;99.90;;;;;;5033342;28;19957;-80
2021/12/15 02:01:39;;;;;;;;;;;9.60;99.90;;;;;;5034884;28;20018;-79
2021/12/15 02:04:05;;;;;;;;;;;9.60;99.90;;;;;;5034767;28;19921;-79
2021/12/15 02:06:30;;;;;;;;;;;9.70;99.90;;;;;;5035234;28;19939;-79
2021/12/15 02:08:56;;;;;;;;;;;9.90;99.90;;;;;;5034433;28;19947;-80
2021/12/15 02:11:22;;;;;;;;;;;9.80;99.90;;;;;;5034652;28;19975;-79
2021/12/15 02:13:47;;;;;;;;;;;9.60;99.90;;;;;;5034636;28;19927;-79
2021/12/15 02:16:13;;;;;;;;;;;10.20;99.90;;;;;;5034064;28;19921;-79
2021/12/15 02:18:42;;;;;;;;;;;9.60;99.90;;;;;;5035349;28;19921;-79
2021/12/15 02:21:09;;;;;;;;;;;10.10;99.90;;;;;;5036751;28;19971;-80
2021/12/15 02:23:41;;;;;;;;;;;9.40;99.90;;;;;;5038366;28;19921;-79
2021/12/15 02:26:08;;;;;;;;;;;10.10;99.90;;;;;;5037971;28;19921;-80
2021/12/15 02:28:37;;;;;;;;;;;9.70;99.90;;;;;;5038242;28;19928;-79
2021/12/15 02:31:17;;;;;;;;;;;10.40;99.90;;;;;;5037881;28;20394;-79
2021/12/15 02:38:53;;;;;;;;;;;9.70;99.90;;;;;;5037752;28;19921;-79
2021/12/15 02:41:23;;;;;;;;;;;9.70;99.90;;;;;;5036706;28;19974;-79
2021/12/15 02:43:51;;;;;;;;;;;9.70;99.90;;;;;;5036962;28;19920;-79
2021/12/15 02:46:17;;;;;;;;;;;9.70;99.90;;;;;;5038417;28;19947;-80
2021/12/15 02:48:42;;;;;;;;;;;9.70;99.90;;;;;;5036770;28;20015;-79
2021/12/15 02:51:08;;;;;;;;;;;9.70;99.90;;;;;;5037923;28;20003;-79
2021/12/15 02:53:33;;;;;;;;;;;9.70;99.90;;;;;;5037495;28;19921;-79
2021/12/15 02:55:59;;;;;;;;;;;9.70;99.90;;;;;;5019930;28;19991;-79
2021/12/15 02:58:31;;;;;;;;;;;9.70;99.90;;;;;;5037655;28;20347;-80
2021/12/15 03:01:03;;;;;;;;;;;9.70;99.90;;;;;;5037546;28;19925;-80
2021/12/15 03:06:07;;;;;;;;;;;9.70;99.90;;;;;;5037759;28;19975;-79
2021/12/15 03:16:54;;;;;;;;;;;9.70;99.90;;;;;;4995680;28;19921;-79
2021/12/15 03:19:20;;;;;;;;;;;9.60;99.90;;;;;;4995465;28;19944;-79
2021/12/15 03:21:45;;;;;;;;;;;9.70;99.90;;;;;;4995912;28;19926;-80
2021/12/15 03:24:18;;;;;;;;;;;9.60;99.90;;;;;;4979534;28;20419;-79
2021/12/15 03:26:52;;;;;;;;;;;9.60;99.90;;;;;;4995677;28;19922;-79
2021/12/15 03:37:25;;;;;;;;;;;9.60;99.90;;;;;;4995969;28;19918;-79
2021/12/15 03:39:59;;;;;;;;;;;9.60;99.90;;;;;;4978925;28;19932;-79
2021/12/15 03:42:39;;;;;;;;;;;9.60;99.90;;;;;;4995421;28;19925;-80
2021/12/15 03:45:06;;;;;;;;;;;9.60;99.90;;;;;;4995908;28;19922;-79
2021/12/15 03:47:34;;;;;;;;;;;9.60;99.90;;;;;;5004891;28;19923;-80
2021/12/15 03:50:00;;;;;;;;;;;9.60;99.90;;;;;;5035586;28;19927;-79
2021/12/15 03:52:26;;;;;;;;;;;9.60;99.90;;;;;;5037173;28;19917;-80
2021/12/15 03:54:52;;;;;;;;;;;9.60;99.90;;;;;;5036702;28;19921;-80
2021/12/15 03:57:19;;;;;;;;;;;9.60;99.90;;;;;;5036170;28;20016;-80
2021/12/15 03:59:46;;;;;;;;;;;9.60;99.90;;;;;;5037302;28;19921;-80
2021/12/15 04:02:18;;;;;;;;;;;9.60;99.90;;;;;;5036213;28;19921;-79
2021/12/15 04:04:43;;;;;;;;;;;9.60;99.90;;;;;;5036760;28;20284;-79
2021/12/15 04:07:10;;;;;;;;;;;10.00;99.90;;;;;;5035339;28;20043;-79
2021/12/15 04:09:36;;;;;;;;;;;9.60;99.90;;;;;;5036296;28;19921;-79
2021/12/15 04:12:02;;;;;;;;;;;9.60;99.90;;;;;;5036430;28;19932;-79
2021/12/15 04:14:34;;;;;;;;;;;9.60;99.90;;;;;;5036157;28;20372;-79
2021/12/15 04:17:05;;;;;;;;;;;9.60;99.90;;;;;;5036846;28;19920;-80
2021/12/15 04:19:32;;;;;;;;;;;9.60;99.90;;;;;;5036552;28;20260;-79
2021/12/15 04:21:58;;;;;;;;;;;9.60;99.90;;;;;;5034980;28;19928;-79
2021/12/15 04:24:26;;;;;;;;;;;9.50;99.90;;;;;;5018480;28;19983;-80
2021/12/15 04:26:53;;;;;;;;;;;9.50;99.90;;;;;;5036382;28;19925;-79
2021/12/15 04:29:19;;;;;;;;;;;9.60;99.90;;;;;;5036214;28;20331;-79
2021/12/15 04:31:48;;;;;;;;;;;10.00;99.90;;;;;;5034453;28;19935;-79
2021/12/15 04:34:14;;;;;;;;;;;9.60;99.90;;;;;;5035726;28;19979;-80
2021/12/15 04:36:44;;;;;;;;;;;9.60;99.90;;;;;;5035565;28;20328;-79
2021/12/15 04:39:11;;;;;;;;;;;9.50;99.90;;;;;;5035322;28;20015;-79
2021/12/15 04:41:37;;;;;;;;;;;9.60;99.90;;;;;;5034978;28;19921;-79
2021/12/15 04:44:09;;;;;;;;;;;10.30;99.90;;;;;;5035255;28;19967;-79
2021/12/15 04:46:36;;;;;;;;;;;9.50;99.90;;;;;;5035211;28;20417;-79
2021/12/15 04:49:04;;;;;;;;;;;9.60;99.90;;;;;;5035777;28;19933;-79
2021/12/15 04:51:30;;;;;;;;;;;9.60;99.90;;;;;;5018290;28;19921;-79
2021/12/15 04:53:57;;;;;;;;;;;9.60;99.90;;;;;;5035427;28;19929;-79
2021/12/15 04:56:24;;;;;;;;;;;9.60;99.90;;;;;;5035465;28;19921;-80
2021/12/15 04:58:49;;;;;;;;;;;9.60;99.90;;;;;;5034924;28;20004;-80
2021/12/15 05:01:16;;;;;;;;;;;9.80;99.90;;;;;;5036234;28;19968;-80
2021/12/15 05:03:42;;;;;;;;;;;9.60;99.90;;;;;;5035693;28;20338;-79
2021/12/15 05:06:07;;;;;;;;;;;9.90;99.90;;;;;;5034701;28;19921;-79
2021/12/15 05:08:33;;;;;;;;;;;9.60;99.90;;;;;;5035134;28;19921;-79
2021/12/15 05:10:59;;;;;;;;;;;9.50;99.90;;;;;;5035767;28;20379;-80
2021/12/15 05:13:27;;;;;;;;;;;9.60;99.90;;;;;;5035302;28;20289;-79
2021/12/15 05:15:52;;;;;;;;;;;9.60;99.90;;;;;;5035218;28;19971;-79
2021/12/15 05:18:18;;;;;;;;;;;9.50;99.90;;;;;;5033839;28;19921;-79
2021/12/15 05:20:48;;;;;;;;;;;10.00;99.90;;;;;;5035008;28;19921;-79
2021/12/15 05:23:15;;;;;;;;;;;9.70;99.90;;;;;;5017367;28;19917;-79
2021/12/15 05:25:41;;;;;;;;;;;9.60;99.90;;;;;;5035111;28;19932;-79
2021/12/15 05:28:06;;;;;;;;;;;9.60;99.90;;;;;;5035116;28;19917;-79
2021/12/15 05:30:32;;;;;;;;;;;9.50;99.90;;;;;;5034901;28;19928;-79
2021/12/15 05:32:58;;;;;;;;;;;9.50;99.90;;;;;;5016873;28;20348;-79
2021/12/15 05:35:24;;;;;;;;;;;9.50;99.90;;;;;;5034761;28;20383;-79
2021/12/15 05:37:55;;;;;;;;;;;9.50;99.90;;;;;;5034779;28;20395;-79
2021/12/15 05:40:21;;;;;;;;;;;9.50;99.90;;;;;;5034774;28;20019;-79
2021/12/15 05:42:47;;;;;;;;;;;9.50;99.90;;;;;;5034663;28;19928;-79
2021/12/15 05:45:12;;;;;;;;;;;9.50;99.90;;;;;;5033787;28;19921;-80
2021/12/15 05:47:38;;;;;;;;;;;9.50;99.90;;;;;;5033374;28;20360;-79
2021/12/15 05:50:06;;;;;;;;;;;9.60;99.90;;;;;;5034566;28;19927;-79
2021/12/15 05:52:32;;;;;;;;;;;9.50;99.90;;;;;;5033320;28;20364;-79
2021/12/15 05:54:58;;;;;;;;;;;9.90;99.90;;;;;;5037640;28;19921;-79
2021/12/15 05:57:23;;;;;;;;;;;9.50;99.90;;;;;;5038447;28;19921;-79
2021/12/15 05:59:49;;;;;;;;;;;9.50;99.90;;;;;;5040378;28;19921;-79
2021/12/15 06:02:15;;;;;;;;;;;9.80;99.90;;;;;;5040881;28;19928;-79
2021/12/15 06:04:40;;;;;;;;;;;9.50;99.90;;;;;;5041236;28;19951;-79
2021/12/15 06:07:06;;;;;;;;;;;9.70;99.90;;;;;;5039293;28;19921;-79
2021/12/15 06:09:32;;;;;;;;;;;9.40;99.90;;;;;;5038426;28;19921;-80
2021/12/15 06:11:58;;;;;;;;;;;9.40;99.90;;;;;;5038285;28;19954;-80
2021/12/15 06:14:24;;;;;;;;;;;9.50;99.90;;;;;;5037151;28;19921;-79
2021/12/15 06:16:51;;;;;;;;;;;9.50;99.90;;;;;;5036985;28;19967;-80
2021/12/15 06:19:16;;;;;;;;;;;10.00;99.90;;;;;;5038530;28;19927;-80
2021/12/15 06:21:42;;;;;;;;;;;9.60;99.90;;;;;;5038040;28;19921;-79
2021/12/15 06:24:07;;;;;;;;;;;9.40;99.90;;;;;;5038314;28;19916;-80
2021/12/15 06:26:34;;;;;;;;;;;9.70;99.90;;;;;;5020663;28;19928;-79
2021/12/15 06:28:59;;;;;;;;;;;9.60;99.90;;;;;;5036974;28;19917;-79
2021/12/15 06:31:25;;;;;;;;;;;9.40;99.90;;;;;;5037051;28;20276;-79
2021/12/15 06:33:50;;;;;;;;;;;9.50;99.90;;;;;;5037772;28;20379;-79
2021/12/15 06:36:20;;;;;;;;;;;9.50;99.90;;;;;;5037557;28;20011;-79
2021/12/15 06:38:46;;;;;;;;;;;9.40;99.90;;;;;;5020487;28;19921;-79
2021/12/15 06:41:12;;;;;;;;;;;9.60;99.90;;;;;;5038253;28;20011;-79
2021/12/15 06:43:39;;;;;;;;;;;9.90;99.90;;;;;;5036890;28;19927;-79
2021/12/15 06:59:41;;;;;;;;;;;9.40;99.90;;;;;;5037720;28;19932;-79
2021/12/15 07:02:07;;;;;;;;;;;9.40;99.90;;;;;;5037155;28;20283;-79
2021/12/15 07:04:32;;;;;;;;;;;9.40;99.90;;;;;;5038205;28;19928;-79
2021/12/15 07:06:58;;;;;;;;;;;10.30;99.90;;;;;;5036889;28;20398;-80
2021/12/15 07:09:23;;;;;;;;;;;9.60;99.90;;;;;;5037988;28;19921;-80
2021/12/15 07:11:50;;;;;;;;;;;9.40;99.90;;;;;;5035666;28;19921;-79
2021/12/15 07:14:16;;;;;;;;;;;9.40;99.90;;;;;;5037285;28;20289;-79
2021/12/15 07:16:45;;;;;;;;;;;9.50;99.90;;;;;;5037511;28;19921;-80
2021/12/15 07:19:31;;;;;;;;;;;9.40;99.90;;;;;;5038282;28;19929;-80
2021/12/15 07:24:33;;;;;;;;;;;9.40;99.90;;;;;;5037622;28;19928;-79
2021/12/15 07:26:59;;;;;;;;;;;9.40;99.90;;;;;;5019562;28;19921;-79
2021/12/15 07:29:25;;;;;;;;;;;9.60;99.90;;;;;;5037209;28;19928;-80
2021/12/15 07:31:51;;;;;;;;;;;9.50;99.90;;;;;;5035374;28;20021;-79
2021/12/15 07:34:16;;;;;;;;;;;9.40;99.90;;;;;;5036868;28;19991;-80
2021/12/15 07:36:42;;;;;;;;;;;9.80;99.90;;;;;;5037320;28;19921;-79
2021/12/15 07:39:10;;;;;;;;;;;9.50;99.90;;;;;;5018888;28;19975;-79
2021/12/15 07:41:42;;;;;;;;;;;9.40;99.90;;;;;;5035822;28;19927;-80
2021/12/15 07:44:07;;;;;;;;;;;9.40;99.90;;;;;;5035838;28;19921;-79
2021/12/15 07:46:33;;;;;;;;;;;9.40;99.90;;;;;;5019229;28;19928;-80
2021/12/15 07:48:58;;;;;;;;;;;9.60;99.90;;;;;;5037120;28;19921;-79
2021/12/15 07:51:24;;;;;;;;;;;9.40;99.90;;;;;;5036314;28;19921;-79
2021/12/15 07:53:49;;;;;;;;;;;9.50;99.90;;;;;;5036575;28;20020;-80
2021/12/15 07:56:15;;;;;;;;;;;9.70;99.90;;;;;;5036503;28;19921;-79
2021/12/15 07:58:41;;;;;;;;;;;9.80;99.90;;;;;;5036307;28;19932;-80
2021/12/15 08:01:07;;;;;;;;;;;9.40;99.90;;;;;;5035381;28;19921;-79
2021/12/15 08:03:34;;;;;;;;;;;9.80;99.90;;;;;;5035874;28;20334;-79
2021/12/15 08:06:00;;;;;;;;;;;9.40;99.90;;;;;;5035707;28;20380;-79
2021/12/15 08:08:26;;;;;;;;;;;9.90;99.90;;;;;;5035163;28;19964;-79
2021/12/15 08:10:56;;;;;;;;;;;9.40;99.90;;;;;;5036130;28;20357;-80
2021/12/15 08:13:27;;;;;;;;;;;9.40;99.90;;;;;;5035766;28;20388;-80
2021/12/15 08:15:52;;;;;;;;;;;9.40;99.90;;;;;;5036060;28;19939;-79
2021/12/15 08:18:18;;;;;;;;;;;9.40;99.90;;;;;;5034415;28;20401;-80
2021/12/15 08:20:44;;;;;;;;;;;9.80;99.90;;;;;;5032218;28;19921;-80
2021/12/15 08:23:09;;;;;;;;;;;9.40;99.90;;;;;;5034724;28;19921;-79
2021/12/15 08:25:36;;;;;;;;;;;9.40;99.90;;;;;;5018581;28;19925;-79
2021/12/15 08:28:02;;;;;;;;;;;9.40;99.90;;;;;;5035286;28;19931;-79
2021/12/15 08:30:28;;;;;;;;;;;9.70;99.90;;;;;;5036076;28;19925;-79
2021/12/15 08:32:56;;;;;;;;;;;9.50;99.90;;;;;;5018869;28;19991;-79
2021/12/15 08:35:25;;;;;;;;;;;9.50;99.90;;;;;;5035580;28;19925;-79
2021/12/15 08:37:51;;;;;;;;;;;9.70;99.90;;;;;;5035147;28;19927;-79
2021/12/15 08:40:18;;;;;;;;;;;9.40;99.90;;;;;;5037717;28;19925;-79
2021/12/15 08:42:43;;;;;;;;;;;9.40;99.90;;;;;;5036460;28;19922;-79
2021/12/15 08:45:10;;;;;;;;;;;9.50;99.90;;;;;;5036097;28;19979;-79
2021/12/15 08:47:35;;;;;;;;;;;9.50;99.90;;;;;;5035497;28;19925;-79
2021/12/15 08:50:04;;;;;;;;;;;9.70;99.90;;;;;;5037300;28;20419;-79
2021/12/15 08:52:30;;;;;;;;;;;9.50;99.90;;;;;;5036364;28;19921;-80
2021/12/15 08:54:56;;;;;;;;;;;9.40;99.90;;;;;;5019736;28;19927;-79
2021/12/15 08:57:22;;;;;;;;;;;9.40;99.90;;;;;;5038980;23;19920;-79
2021/12/15 08:59:47;;;;;;;;;;;9.40;99.90;;;;;;5058761;28;20032;-79
2021/12/15 09:02:13;;;;;;;;;;;9.90;99.90;;;;;;5042418;28;20461;-80
2021/12/15 09:04:38;;;;;;;;;;;9.30;99.90;;;;;;5043120;28;20290;-80
2021/12/15 09:07:04;;;;;;;;;;;9.90;99.90;;;;;;5043299;28;19920;-79
2021/12/15 09:09:30;;;;;;;;;;;9.30;99.90;;;;;;5043084;28;19983;-79
2021/12/15 09:11:55;;;;;;;;;;;9.90;99.90;;;;;;5076100;28;19920;-80
2021/12/15 09:14:21;;;;;;;;;;;9.70;99.90;;;;;;5064266;28;19943;-80
2021/12/15 09:16:48;;;;;;;;;;;9.80;99.90;;;;;;5067450;28;20010;-79
2021/12/15 09:19:14;;;;;;;;;;;9.20;99.90;;;;;;5059754;28;19927;-80
2021/12/15 09:21:42;;;;;;;;;;;9.90;99.90;;;;;;5065495;22;20314;-80
2021/12/15 09:24:08;;;;;;;;;;;9.20;99.90;;;;;;5040881;23;19987;-80
2021/12/15 09:26:35;;;;;;;;;;;9.20;99.90;;;;;;5050266;22;19921;-80
2021/12/15 09:29:01;;;;;;;;;;;9.20;99.90;;;;;;5021220;23;19921;-80
2021/12/15 09:31:27;;;;;;;;;;;9.20;99.90;;;;;;5032984;23;19966;-81
2021/12/15 09:33:53;;;;;;;;;;;9.20;99.90;;;;;;5019186;23;19980;-80
2021/12/15 09:38:47;;;;;;;;;;;9.30;99.90;;;;;;5086941;22;19951;-80
2021/12/15 09:41:13;;;;;;;;;;;9.40;99.90;;;;;;5049767;23;19921;-80
2021/12/15 09:43:40;;;;;;;;;;;9.40;99.90;;;;;;5056302;23;19928;-80
2021/12/15 09:46:13;;;;;;;;;;;9.40;99.90;;;;;;5065102;23;19927;-80
2021/12/15 10:20:56;;;;;;;;;;;10.20;99.90;;;;;;5055140;23;19982;-80
2021/12/15 10:23:29;;;;;;;;;;;10.20;99.90;;;;;;5040393;23;19920;-80
2021/12/15 10:25:57;;;;;;;;;;;10.20;99.90;;;;;;5044999;23;20370;-81
2021/12/15 10:28:30;;;;;;;;;;;10.20;99.90;;;;;;5063139;22;19926;-81
2021/12/15 10:31:02;;;;;;;;;;;10.10;99.90;;;;;;5038884;23;19944;-80
2021/12/15 10:33:30;;;;;;;;;;;10.10;99.90;;;;;;5048817;23;20290;-80
2021/12/15 10:36:10;;;;;;;;;;;10.10;99.90;;;;;;5062408;23;20367;-80
2021/12/15 10:38:45;;;;;;;;;;;10.10;99.90;;;;;;5036396;22;19956;-80
2021/12/15 10:41:11;;;;;;;;;;;10.10;99.90;;;;;;5040618;23;19955;-80
2021/12/15 10:43:55;;;;;;;;;;;10.10;99.90;;;;;;5050612;22;19925;-80
2021/12/15 10:46:23;;;;;;;;;;;10.10;99.90;;;;;;5044280;23;20341;-80
2021/12/15 10:48:49;;;;;;;;;;;10.10;99.90;;;;;;5063793;28;19943;-80
2021/12/15 10:51:24;;;;;;;;;;;10.10;99.90;;;;;;5023444;23;19922;-81
2021/12/15 10:53:51;;;;;;;;;;;10.10;99.90;;;;;;5047725;22;19925;-80
2021/12/15 10:56:18;;;;;;;;;;;10.10;99.90;;;;;;5030214;23;20295;-80
2021/12/15 10:58:48;;;;;;;;;;;10.10;99.90;;;;;;5024052;28;19921;-80
2021/12/15 11:01:31;;;;;;;;;;;10.00;99.90;;;;;;5023914;28;19920;-80
2021/12/15 11:04:00;;;;;;;;;;;10.10;99.90;;;;;;5024042;28;19921;-79
2021/12/15 11:06:32;;;;;;;;;;;10.10;99.90;;;;;;5031708;22;19921;-79
2021/12/15 11:09:23;;;;;;;;;;;10.10;99.90;;;;;;5055192;23;19920;-80
2021/12/15 11:12:00;;;;;;;;;;;10.10;99.90;;;;;;4985241;28;19921;-80
2021/12/15 11:14:29;;;;;;;;;;;10.10;99.90;;;;;;5028416;23;19978;-80
2021/12/15 11:17:21;;;;;;;;;;;10.10;99.90;;;;;;5037800;23;19921;-80
2021/12/15 11:19:49;;;;;;;;;;;10.10;99.90;;;;;;5040409;28;19927;-80
2021/12/15 11:22:33;;;;;;;;;;;10.20;99.90;;;;;;5045795;28;19924;-80
2021/12/15 11:25:00;;;;;;;;;;;10.20;99.90;;;;;;5080886;28;19999;-80
2021/12/15 11:27:26;;;;;;;;;;;10.40;99.90;;;;;;5045984;28;19927;-80
2021/12/15 11:29:51;;;;;;;;;;;10.60;99.90;;;;;;5045698;28;19920;-79
2021/12/15 11:32:35;;;;;;;;;;;10.90;99.90;;;;;;5060463;28;19927;-79
2021/12/15 11:35:03;;;;;;;;;;;10.30;99.90;;;;;;5079616;28;19920;-79
2021/12/15 11:37:42;;;;;;;;;;;10.70;99.90;;;;;;5078761;28;20389;-79
2021/12/15 11:40:08;;;;;;;;;;;10.30;99.90;;;;;;5079131;28;20019;-79
2021/12/15 11:42:37;;;;;;;;;;;10.40;99.90;;;;;;5061770;28;19947;-80
2021/12/15 11:45:06;;;;;;;;;;;10.80;99.90;;;;;;5080263;28;20371;-79
2021/12/15 11:47:33;;;;;;;;;;;10.40;99.90;;;;;;5061655;28;20007;-80
2021/12/15 11:50:07;;;;;;;;;;;10.40;99.90;;;;;;5045765;28;19923;-79
2021/12/15 11:52:38;;;;;;;;;;;10.40;99.90;;;;;;5060960;28;19966;-79
2021/12/15 11:55:04;;;;;;;;;;;10.40;99.90;;;;;;5045542;28;20343;-80
2021/12/15 11:57:30;;;;;;;;;;;10.40;99.90;;;;;;5044712;28;20458;-79
2021/12/15 11:59:59;;;;;;;;;;;10.30;99.90;;;;;;5045357;28;19924;-79
2021/12/15 12:02:26;;;;;;;;;;;10.30;99.90;;;;;;5060519;28;19997;-80
2021/12/15 12:04:54;;;;;;;;;;;10.20;99.90;;;;;;5061499;28;19920;-79
2021/12/15 12:07:26;;;;;;;;;;;10.20;99.90;;;;;;5078995;28;20375;-79
2021/12/15 12:09:54;;;;;;;;;;;10.30;99.90;;;;;;5061272;28;19920;-79
2021/12/15 12:12:24;;;;;;;;;;;10.60;99.90;;;;;;5029787;28;19925;-80
2021/12/15 12:14:50;;;;;;;;;;;10.20;99.90;;;;;;5041594;28;19979;-79
2021/12/15 12:17:33;;;;;;;;;;;10.40;99.90;;;;;;5040877;28;20353;-80
2021/12/15 12:20:01;;;;;;;;;;;10.20;99.90;;;;;;5041078;28;19921;-81
2021/12/15 12:22:28;;;;;;;;;;;10.30;99.90;;;;;;5006052;28;20023;-81
2021/12/15 12:24:57;;;;;;;;;;;10.20;99.90;;;;;;5023053;28;20037;-81
2021/12/15 12:27:24;;;;;;;;;;;10.10;99.90;;;;;;5022752;28;19920;-81
2021/12/15 12:29:51;;;;;;;;;;;10.80;99.90;;;;;;5021982;28;20417;-80
2021/12/15 12:32:17;;;;;;;;;;;10.40;99.90;;;;;;5038251;28;19920;-80
2021/12/15 12:34:42;;;;;;;;;;;10.10;99.90;;;;;;5022373;28;19920;-81
2021/12/15 12:37:10;;;;;;;;;;;10.70;99.90;;;;;;5039538;28;19920;-81
2021/12/15 12:39:38;;;;;;;;;;;10.00;99.90;;;;;;5040771;28;19931;-80
2021/12/15 12:42:04;;;;;;;;;;;10.00;99.90;;;;;;5059336;28;19925;-80
2021/12/15 12:44:34;;;;;;;;;;;9.90;99.90;;;;;;5040372;28;19932;-80
2021/12/15 12:47:05;;;;;;;;;;;9.90;99.90;;;;;;5041190;28;19925;-80
2021/12/15 12:59:23;;;;;;;;;;;9.90;99.90;;;;;;5059376;28;19927;-80
2021/12/15 13:00:56;;;;;;;;;;;9.90;99.90;;;;;;5040508;28;19964;-81
2021/12/15 13:03:25;;;;;;;;;;;9.80;99.90;;;;;;5024488;28;20351;-80
2021/12/15 13:05:59;;;;;;;;;;;9.30;99.90;;;;;;5025447;28;19920;-80
2021/12/15 13:08:41;;;;;;;;;;;9.80;99.90;;;;;;5024995;28;19926;-80
2021/12/15 13:11:19;;;;;;;;;;;9.80;99.90;;;;;;5022936;28;19955;-80
2021/12/15 13:14:02;;;;;;;;;;;9.80;99.90;;;;;;5023910;28;19921;-80
2021/12/15 13:16:28;;;;;;;;;;;9.70;99.90;;;;;;5059921;28;19951;-80
2021/12/15 13:18:56;;;;;;;;;;;9.70;99.90;;;;;;5062547;28;20354;-80
2021/12/15 13:21:42;;;;;;;;;;;9.60;99.90;;;;;;5046187;28;19921;-80
2021/12/15 13:28:39;;;;;;;;;;;9.70;99.90;;;;;;5040768;28;19920;-80
2021/12/15 13:30:01;;;;;;;;;;;9.60;99.90;;;;;;5036689;28;20303;-80
2021/12/15 13:32:29;;;;;;;;;;;9.60;99.90;;;;;;5048162;22;19921;-81
2021/12/15 13:34:55;;;;;;;;;;;9.60;99.90;;;;;;5023367;28;20350;-80
2021/12/15 13:37:39;;;;;;;;;;;9.60;99.90;;;;;;5041472;28;19932;-80
2021/12/15 13:40:09;;;;;;;;;;;9.60;99.90;;;;;;5040991;28;19921;-80
2021/12/15 13:42:52;;;;;;;;;;;9.60;99.90;;;;;;5040841;28;20366;-80
2021/12/15 13:45:24;;;;;;;;;;;9.60;99.90;;;;;;5040449;28;20379;-80
2021/12/15 13:47:50;;;;;;;;;;;9.50;99.90;;;;;;5024772;28;19928;-80
2021/12/15 13:50:17;;;;;;;;;;;9.60;99.90;;;;;;5025091;28;20327;-80
2021/12/15 13:52:44;;;;;;;;;;;9.70;99.90;;;;;;5042563;28;19924;-80
2021/12/15 13:55:11;;;;;;;;;;;9.60;99.90;;;;;;5033016;28;19921;-80
2021/12/15 13:57:39;;;;;;;;;;;9.60;99.90;;;;;;5045348;28;20283;-80
2021/12/15 14:00:09;;;;;;;;;;;9.50;99.90;;;;;;5046368;28;19920;-80
2021/12/15 14:02:36;;;;;;;;;;;9.50;99.90;;;;;;5065654;28;19959;-80
2021/12/15 14:05:07;;;;;;;;;;;10.20;99.90;;;;;;5025877;28;19920;-80
2021/12/15 14:07:47;;;;;;;;;;;9.50;99.90;;;;;;5024287;28;19935;-80
2021/12/15 14:10:12;;;;;;;;;;;9.50;99.90;;;;;;5024474;28;19936;-80
2021/12/15 14:12:44;;;;;;;;;;;9.50;99.90;;;;;;5032300;22;20598;-81
2021/12/15 14:15:13;;;;;;;;;;;9.50;99.90;;;;;;5046685;28;19946;-80
2021/12/15 14:17:39;;;;;;;;;;;9.40;99.90;;;;;;5063682;28;20294;-80
2021/12/15 14:20:09;;;;;;;;;;;9.40;99.90;;;;;;5046976;28;19921;-80
2021/12/15 14:22:34;;;;;;;;;;;9.40;99.90;;;;;;5080266;28;20371;-80
2021/12/15 14:25:02;;;;;;;;;;;9.40;99.90;;;;;;5080467;28;19985;-80
2021/12/15 14:27:28;;;;;;;;;;;9.40;99.90;;;;;;5080307;28;19956;-80
2021/12/15 14:29:53;;;;;;;;;;;9.60;99.90;;;;;;5063693;28;20345;-80
2021/12/15 14:32:19;;;;;;;;;;;9.30;99.90;;;;;;5079971;28;19920;-80
2021/12/15 14:34:46;;;;;;;;;;;9.30;99.90;;;;;;5081455;28;20015;-80
2021/12/15 14:37:15;;;;;;;;;;;9.40;99.90;;;;;;5080119;28;19920;-80
2021/12/15 14:39:42;;;;;;;;;;;9.40;99.90;;;;;;5064135;28;19921;-80
2021/12/15 14:42:12;;;;;;;;;;;9.40;99.90;;;;;;5079557;28;19927;-80
2021/12/15 14:44:42;;;;;;;;;;;9.40;99.90;;;;;;5079745;28;19928;-80
2021/12/15 14:47:11;;;;;;;;;;;10.10;99.90;;;;;;5063190;28;19924;-80
2021/12/15 14:49:38;;;;;;;;;;;9.40;99.90;;;;;;5046966;28;19931;-80
2021/12/15 14:52:06;;;;;;;;;;;9.40;99.90;;;;;;5063297;28;19925;-80
2021/12/15 14:54:32;;;;;;;;;;;9.30;99.90;;;;;;5046094;28;20397;-80
2021/12/15 14:57:02;;;;;;;;;;;9.40;99.90;;;;;;5046092;28;19920;-80
2021/12/15 14:59:32;;;;;;;;;;;9.40;99.90;;;;;;5046173;28;19924;-80
2021/12/15 15:02:04;;;;;;;;;;;10.00;99.90;;;;;;5081226;28;19920;-80
2021/12/15 15:04:30;;;;;;;;;;;9.40;99.90;;;;;;5078981;28;19916;-80
2021/12/15 15:06:58;;;;;;;;;;;9.40;99.90;;;;;;5062989;28;19927;-80
2021/12/15 15:09:25;;;;;;;;;;;9.40;99.90;;;;;;5045784;28;19920;-80
2021/12/15 15:11:53;;;;;;;;;;;10.10;99.90;;;;;;5076647;28;20389;-80
2021/12/15 15:14:30;;;;;;;;;;;9.40;99.90;;;;;;5078535;28;19928;-80
2021/12/15 15:16:56;;;;;;;;;;;9.40;99.90;;;;;;5062237;28;19920;-80
2021/12/15 15:19:22;;;;;;;;;;;9.40;99.90;;;;;;5062159;28;19934;-80
2021/12/15 15:21:47;;;;;;;;;;;9.40;99.90;;;;;;5078987;28;19975;-80
2021/12/15 15:24:23;;;;;;;;;;;9.40;99.90;;;;;;5081564;28;19978;-81
2021/12/15 15:26:56;;;;;;;;;;;9.30;99.90;;;;;;5049202;23;19928;-81
2021/12/15 15:29:29;;;;;;;;;;;9.40;99.90;;;;;;5078870;23;19925;-80
2021/12/15 15:31:55;;;;;;;;;;;9.40;99.90;;;;;;5047186;28;19924;-80
2021/12/15 15:34:24;;;;;;;;;;;9.40;99.90;;;;;;5041249;28;19935;-80
2021/12/15 15:36:50;;;;;;;;;;;9.40;99.90;;;;;;5073609;28;19921;-80
2021/12/15 15:39:16;;;;;;;;;;;9.40;99.90;;;;;;5061330;28;19948;-80
2021/12/15 15:41:45;;;;;;;;;;;9.40;99.90;;;;;;5063587;22;20067;-80
2021/12/15 15:44:11;;;;;;;;;;;9.70;99.90;;;;;;5005560;28;19921;-80
2021/12/15 15:46:39;;;;;;;;;;;9.40;99.90;;;;;;5020794;28;19924;-80
2021/12/15 15:49:13;;;;;;;;;;;9.40;99.90;;;;;;5005078;28;20279;-80
2021/12/15 15:51:39;;;;;;;;;;;9.40;99.90;;;;;;5056786;22;19974;-80
2021/12/15 15:54:14;;;;;;;;;;;9.40;99.90;;;;;;5042104;28;19971;-80
2021/12/15 15:56:41;;;;;;;;;;;9.30;99.90;;;;;;5042106;28;20035;-80
2021/12/15 15:59:08;;;;;;;;;;;9.80;99.90;;;;;;5024862;28;19928;-80
2021/12/15 16:01:36;;;;;;;;;;;9.30;99.90;;;;;;5024935;28;19928;-80
2021/12/15 16:04:03;;;;;;;;;;;9.20;99.90;;;;;;5040910;28;19968;-80
2021/12/15 16:06:29;;;;;;;;;;;9.20;99.90;;;;;;5054371;22;19939;-80
2021/12/15 16:08:56;;;;;;;;;;;9.10;99.90;;;;;;5041718;28;19972;-80